Accueil
METAR-TAF:

METAR-TAF

Aéroports :

Aéroport du Touquet-Côte d'Opale

Le Touquet, France

latitude: 50-30-53N, longitude: 001-37-39E, altitude: 6 m

Observation

Le bulletin a été fait il y a 32 minutes, à 07:00 UTC
Vent 3 kt de est/sud-est
Température -1°C
Humidité 93%
Pression 1011 hPa
Visibilité: 4300 m
Quelques nuages à une hauteur de 1300 ft
brume

METAR: LFAT 210700Z AUTO 12003KT 4300 BR FEW013 M01/M02 Q1011 TEMPO BKN007 BECMG 6000 NSW

Heure: 08:32 (07:32 UTC)

Prévision

Le bulletin a été fait il y a 43 minutes, à 06:49 UTC
Prévision valable du 21 à 06 UTC au 21 à 15 UTC
Vent 5 kt de sud/sud-est
Visibilité: 6000 m
Temporairement
du 21 à 07 UTC au 21 à 09 UTC
Visibilité: 3000 m
Nuages fragmentés à une hauteur de 700 ft
brume

TAF: LFAT 210649Z 2106/2115 15005KT 6000 NSC TEMPO 2107/2109 3000 BR BKN007

Observations et prévisions météorologiques de plus de 4000 aéroports (messages METAR et TAF).

Les stations disponibles sont représentées par des disques jaunes et rouges sur la carte.

Passer la souris dessus pour voir le nom de la station.

Cliquer dessus pour voir les observations et prévisions météorologiques.

Pour changer de carte: cliquez sur les boutons verts avec une croix noire pour zoomer, sur le bouton vert avec un tiret pour effectuer un zoom arrière, ou sur les flèches vertes pour les cartes adjacentes.


METAR-TAF: